No particular awareness of the weather is required.    There are no Weather-warnings


Meteo18 Weather Cam more information Meteo18 Weather Cam


Thunder radar more information blitzortung!


Rain radar more information rain snow radar


Visit our other weather sites:

Template documentation
and downloads

And another site



Weather Underground History page Text

Daily Summary for July 4, 2016 Units:  Metric    English   Both
« Previous Day
Next Day »
Daily Weekly Monthly Yearly Custom
  High: Low: Average:
Temperature: 24.2 °C 15.4 °C 18.8 °C
Dew Point: 16.8 °C 13.9 °C 15.5 °C
Humidity: 95 % 60 % 82 %
Wind Speed: 3.2 km/h 0.0 km/h 0.2 km/h
Wind Gust: 8.0 km/h - -
Wind:- - SSW
Pressure: 1021.6 hPa 1017.8 hPa -
Precipitation: 0.5 mm    
Historical Graphs
 
 
Tabular Data for July 4, 2016
Time Temperature Dew Point Pressure Wind Wind Speed Wind Gust Humidity Rainfall Rate (Hourly)
00:02 16.8 °C 14.6 °C 1021.6 hPa Calm     87 % 0.0 mm
00:07 16.7 °C 14.5 °C 1021.6 hPa Calm     87 % 0.0 mm
00:12 16.6 °C 14.4 °C 1021.6 hPa Calm     87 % 0.0 mm
00:17 16.6 °C 14.6 °C 1021.6 hPa Calm     88 % 0.0 mm
00:22 16.4 °C 14.4 °C 1021.6 hPa Calm     88 % 0.0 mm
00:27 16.4 °C 14.4 °C 1021.6 hPa Calm     88 % 0.0 mm
00:32 16.3 °C 14.5 °C 1021.6 hPa Calm     89 % 0.0 mm
00:37 16.3 °C 14.5 °C 1021.6 hPa Calm     89 % 0.0 mm
00:47 16.3 °C 14.5 °C 1021.6 hPa Calm     89 % 0.0 mm
00:52 16.3 °C 14.5 °C 1021.6 hPa Calm     89 % 0.0 mm
00:57 16.3 °C 14.5 °C 1021.6 hPa Calm     89 % 0.0 mm
01:02 16.3 °C 14.5 °C 1021.6 hPa Calm     89 % 0.0 mm
01:07 16.3 °C 14.5 °C 1021.6 hPa Calm     89 % 0.0 mm
01:12 16.3 °C 14.7 °C 1021.6 hPa Calm     90 % 0.0 mm
01:17 16.3 °C 14.7 °C 1021.6 hPa Calm     90 % 0.0 mm
01:22 16.3 °C 14.7 °C 1021.6 hPa Calm     90 % 0.0 mm
01:27 16.3 °C 14.7 °C 1021.2 hPa Calm     90 % 0.0 mm
01:32 16.3 °C 14.7 °C 1021.2 hPa Calm     90 % 0.0 mm
01:37 16.3 °C 14.7 °C 1021.2 hPa Calm     90 % 0.0 mm
01:42 16.4 °C 14.6 °C 1021.2 hPa Calm   3.2 km/h 89 % 0.0 mm
01:47 16.6 °C 14.8 °C 1021.2 hPa Calm   3.2 km/h 89 % 0.0 mm
01:52 16.6 °C 14.8 °C 1021.2 hPa Calm   3.2 km/h 89 % 0.0 mm
01:57 16.5 °C 14.7 °C 1021.2 hPa Calm   3.2 km/h 89 % 0.0 mm
02:02 16.3 °C 14.5 °C 1021.2 hPa Calm   3.2 km/h 89 % 0.0 mm
02:07 16.1 °C 14.3 °C 1021.2 hPa Calm   1.6 km/h 89 % 0.0 mm
02:12 15.8 °C 14.0 °C 1021.2 hPa Calm   1.6 km/h 89 % 0.0 mm
02:17 15.6 °C 14.0 °C 1021.2 hPa Calm   1.6 km/h 90 % 0.0 mm
02:22 15.4 °C 13.9 °C 1021.2 hPa Calm     91 % 0.0 mm
02:32 15.4 °C 14.1 °C 1021.2 hPa Calm     92 % 0.0 mm
02:42 15.4 °C 14.3 °C 1020.9 hPa Calm     93 % 0.0 mm
02:47 15.4 °C 14.3 °C 1020.9 hPa Calm     93 % 0.0 mm
02:52 15.5 °C 14.4 °C 1020.9 hPa Calm     93 % 0.0 mm
02:57 15.6 °C 14.5 °C 1020.9 hPa Calm   1.6 km/h 93 % 0.0 mm
03:02 15.6 °C 14.3 °C 1020.9 hPa Calm   1.6 km/h 92 % 0.0 mm
03:07 15.6 °C 14.3 °C 1020.9 hPa Calm   1.6 km/h 92 % 0.0 mm
03:12 15.7 °C 14.4 °C 1020.9 hPa Calm     92 % 0.0 mm
03:17 15.7 °C 14.6 °C 1020.9 hPa Calm     93 % 0.0 mm
03:22 15.8 °C 14.7 °C 1020.9 hPa Calm     93 % 0.0 mm
03:27 15.9 °C 14.8 °C 1020.9 hPa Calm   1.6 km/h 93 % 0.0 mm
03:32 16.1 °C 15.0 °C 1020.9 hPa SW 3.2 km/h 3.2 km/h 93 % 0.0 mm
03:37 16.2 °C 14.9 °C 1020.9 hPa Calm   3.2 km/h 92 % 0.0 mm
03:42 16.3 °C 15.0 °C 1020.9 hPa Calm   3.2 km/h 92 % 0.0 mm
03:47 16.4 °C 14.9 °C 1020.9 hPa Calm   3.2 km/h 91 % 0.0 mm
03:52 16.4 °C 14.9 °C 1020.5 hPa Calm   1.6 km/h 91 % 0.0 mm
03:57 16.4 °C 14.9 °C 1020.5 hPa Calm   1.6 km/h 91 % 0.0 mm
04:02 16.4 °C 14.9 °C 1020.5 hPa Calm   3.2 km/h 91 % 0.0 mm
04:07 16.4 °C 15.1 °C 1020.5 hPa Calm   3.2 km/h 92 % 0.0 mm
04:12 16.4 °C 15.1 °C 1020.5 hPa Calm   3.2 km/h 92 % 0.0 mm
04:17 16.4 °C 15.1 °C 1020.5 hPa Calm   1.6 km/h 92 % 0.0 mm
04:22 16.4 °C 15.1 °C 1020.5 hPa Calm   3.2 km/h 92 % 0.0 mm
04:27 16.4 °C 15.1 °C 1020.5 hPa WSW 1.6 km/h 3.2 km/h 92 % 0.0 mm
04:37 16.4 °C 15.1 °C 1020.5 hPa WSW 1.6 km/h 4.8 km/h 92 % 0.0 mm
04:42 16.5 °C 15.2 °C 1020.5 hPa Calm   4.8 km/h 92 % 0.0 mm
04:47 16.5 °C 15.2 °C 1020.5 hPa Calm   1.6 km/h 92 % 0.0 mm
04:52 16.5 °C 15.2 °C 1020.5 hPa Calm   1.6 km/h 92 % 0.0 mm
04:57 16.5 °C 15.4 °C 1020.5 hPa Calm   1.6 km/h 93 % 0.0 mm
05:02 16.5 °C 15.4 °C 1020.5 hPa Calm   1.6 km/h 93 % 0.0 mm
05:12 16.3 °C 15.2 °C 1020.5 hPa Calm   4.8 km/h 93 % 0.0 mm
05:17 16.2 °C 15.1 °C 1020.5 hPa Calm   4.8 km/h 93 % 0.0 mm
05:22 16.1 °C 15.0 °C 1020.5 hPa Calm   4.8 km/h 93 % 0.0 mm
05:27 16.0 °C 15.0 °C 1020.5 hPa Calm   1.6 km/h 94 % 0.0 mm
05:32 15.9 °C 14.9 °C 1020.5 hPa Calm     94 % 0.0 mm
05:37 15.9 °C 14.9 °C 1020.5 hPa Calm     94 % 0.0 mm
05:42 15.9 °C 14.9 °C 1020.5 hPa Calm     94 % 0.0 mm
05:47 15.9 °C 14.9 °C 1020.5 hPa Calm     94 % 0.0 mm
05:52 15.9 °C 14.9 °C 1020.5 hPa Calm     94 % 0.0 mm
05:57 15.9 °C 14.9 °C 1020.5 hPa Calm     94 % 0.0 mm
06:02 15.9 °C 14.9 °C 1020.5 hPa Calm     94 % 0.0 mm
06:07 15.9 °C 15.1 °C 1020.5 hPa Calm     95 % 0.0 mm
06:12 15.9 °C 15.1 °C 1020.5 hPa Calm     95 % 0.0 mm
06:17 15.9 °C 15.1 °C 1020.5 hPa Calm     95 % 0.0 mm
06:22 15.9 °C 15.1 °C 1020.5 hPa Calm     95 % 0.0 mm
06:27 15.9 °C 15.1 °C 1020.5 hPa Calm     95 % 0.0 mm
06:32 16.0 °C 15.2 °C 1020.5 hPa Calm     95 % 0.0 mm
06:37 16.0 °C 15.2 °C 1020.5 hPa Calm     95 % 0.0 mm
06:42 16.1 °C 15.3 °C 1020.5 hPa Calm     95 % 0.0 mm
06:47 16.1 °C 15.3 °C 1020.5 hPa Calm     95 % 0.0 mm
06:57 16.2 °C 15.4 °C 1020.9 hPa Calm     95 % 0.0 mm
07:02 16.3 °C 15.5 °C 1020.9 hPa Calm     95 % 0.0 mm
07:12 16.3 °C 15.5 °C 1020.9 hPa Calm     95 % 0.0 mm
07:17 16.3 °C 15.5 °C 1020.9 hPa Calm     95 % 0.0 mm
07:22 16.4 °C 15.6 °C 1020.9 hPa Calm     95 % 0.0 mm
07:27 16.4 °C 15.6 °C 1020.9 hPa Calm     95 % 0.0 mm
07:32 16.4 °C 15.6 °C 1020.9 hPa Calm     95 % 0.0 mm
07:37 16.4 °C 15.6 °C 1020.9 hPa Calm     95 % 0.3 mm
07:42 16.4 °C 15.6 °C 1020.5 hPa Calm     95 % 0.3 mm
07:47 16.4 °C 15.6 °C 1020.9 hPa Calm     95 % 0.3 mm
07:52 16.4 °C 15.6 °C 1020.9 hPa Calm   1.6 km/h 95 % 0.3 mm
07:57 16.3 °C 15.5 °C 1020.9 hPa Calm   3.2 km/h 95 % 0.3 mm
08:02 16.4 °C 15.6 °C 1020.9 hPa Calm   3.2 km/h 95 % 0.3 mm
08:12 16.6 °C 15.8 °C 1020.9 hPa Calm   1.6 km/h 95 % 0.3 mm
08:17 16.8 °C 16.0 °C 1020.9 hPa Calm   1.6 km/h 95 % 0.3 mm
08:22 16.9 °C 16.1 °C 1020.9 hPa Calm   1.6 km/h 95 % 0.3 mm
08:27 17.0 °C 16.0 °C 1020.9 hPa Calm   1.6 km/h 94 % 0.3 mm
08:32 17.1 °C 16.1 °C 1020.9 hPa Calm   1.6 km/h 94 % 0.3 mm
08:37 17.2 °C 16.1 °C 1020.9 hPa Calm   1.6 km/h 93 % 0.0 mm
08:42 17.3 °C 16.2 °C 1020.9 hPa Calm   1.6 km/h 93 % 0.0 mm
08:47 17.4 °C 16.1 °C 1020.9 hPa Calm   3.2 km/h 92 % 0.0 mm
08:52 17.6 °C 16.1 °C 1020.9 hPa Calm   3.2 km/h 91 % 0.0 mm
08:57 17.6 °C 15.9 °C 1020.9 hPa Calm   3.2 km/h 90 % 0.0 mm
09:02 17.6 °C 15.9 °C 1021.2 hPa Calm   4.8 km/h 90 % 0.0 mm
09:07 17.6 °C 16.1 °C 1021.2 hPa WSW 3.2 km/h 4.8 km/h 91 % 0.0 mm
09:12 17.4 °C 15.9 °C 1021.2 hPa Calm   4.8 km/h 91 % 0.0 mm
09:17 17.2 °C 15.7 °C 1021.2 hPa Calm   3.2 km/h 91 % 0.3 mm
09:22 17.2 °C 15.9 °C 1021.2 hPa Calm   3.2 km/h 92 % 0.3 mm
09:27 17.3 °C 16.0 °C 1021.2 hPa Calm   3.2 km/h 92 % 0.3 mm
09:32 17.6 °C 16.3 °C 1021.2 hPa Calm   3.2 km/h 92 % 0.3 mm
09:37 17.7 °C 16.2 °C 1021.2 hPa Calm   1.6 km/h 91 % 0.3 mm
09:42 17.8 °C 16.3 °C 1021.2 hPa Calm   1.6 km/h 91 % 0.3 mm
09:47 18.1 °C 16.4 °C 1021.2 hPa Calm   1.6 km/h 90 % 0.3 mm
09:52 18.4 °C 16.7 °C 1021.2 hPa Calm   1.6 km/h 90 % 0.3 mm
09:57 18.4 °C 16.2 °C 1021.2 hPa Calm   4.8 km/h 87 % 0.3 mm
10:02 18.4 °C 16.2 °C 1021.2 hPa SW 1.6 km/h 4.8 km/h 87 % 0.3 mm
10:07 18.4 °C 16.4 °C 1021.2 hPa WSW 1.6 km/h 6.4 km/h 88 % 0.3 mm
10:12 18.3 °C 15.9 °C 1021.2 hPa SW 3.2 km/h 8.0 km/h 86 % 0.0 mm
10:17 18.3 °C 16.3 °C 1021.2 hPa West 1.6 km/h 8.0 km/h 88 % 0.0 mm
10:22 18.6 °C 16.2 °C 1021.2 hPa WSW 1.6 km/h 8.0 km/h 86 % 0.0 mm
10:27 18.8 °C 16.4 °C 1021.2 hPa WSW 1.6 km/h 6.4 km/h 86 % 0.0 mm
10:32 19.4 °C 16.8 °C 1021.2 hPa Calm   6.4 km/h 85 % 0.0 mm
10:37 19.7 °C 16.7 °C 1021.2 hPa WSW 1.6 km/h 3.2 km/h 83 % 0.0 mm
10:42 19.7 °C 16.7 °C 1021.2 hPa Calm   3.2 km/h 83 % 0.0 mm
10:47 19.5 °C 16.5 °C 1021.2 hPa Calm   4.8 km/h 83 % 0.0 mm
10:52 19.1 °C 16.1 °C 1021.2 hPa Calm   4.8 km/h 83 % 0.0 mm
10:57 19.2 °C 16.8 °C 1021.2 hPa Calm   4.8 km/h 86 % 0.0 mm
11:02 19.6 °C 16.4 °C 1021.2 hPa Calm   4.8 km/h 82 % 0.0 mm
11:07 19.6 °C 16.2 °C 1021.2 hPa Calm   4.8 km/h 81 % 0.0 mm
11:17 20.0 °C 16.6 °C 1021.2 hPa Calm   6.4 km/h 81 % 0.0 mm
11:22 19.9 °C 16.1 °C 1021.2 hPa Calm   6.4 km/h 79 % 0.0 mm
11:27 19.8 °C 16.2 °C 1021.2 hPa Calm   3.2 km/h 80 % 0.0 mm
11:32 19.7 °C 16.3 °C 1021.2 hPa Calm   3.2 km/h 81 % 0.0 mm
11:42 19.2 °C 15.9 °C 1021.2 hPa Calm   3.2 km/h 81 % 0.0 mm
11:47 19.0 °C 15.9 °C 1021.2 hPa Calm   3.2 km/h 82 % 0.0 mm
11:52 18.8 °C 16.0 °C 1021.2 hPa Calm   3.2 km/h 84 % 0.0 mm
11:57 18.8 °C 16.2 °C 1021.2 hPa Calm   3.2 km/h 85 % 0.0 mm
12:02 19.1 °C 16.5 °C 1021.2 hPa Calm   3.2 km/h 85 % 0.0 mm
12:07 19.3 °C 16.3 °C 1021.2 hPa Calm   3.2 km/h 83 % 0.0 mm
12:12 19.6 °C 16.4 °C 1021.2 hPa Calm   3.2 km/h 82 % 0.0 mm
12:17 19.9 °C 16.5 °C 1021.2 hPa Calm   4.8 km/h 81 % 0.0 mm
12:22 20.2 °C 16.2 °C 1021.2 hPa Calm   4.8 km/h 78 % 0.0 mm
12:27 20.3 °C 15.9 °C 1021.2 hPa Calm   4.8 km/h 76 % 0.0 mm
12:32 20.4 °C 16.2 °C 1020.9 hPa Calm   4.8 km/h 77 % 0.0 mm
12:37 20.6 °C 16.2 °C 1020.9 hPa Calm   4.8 km/h 76 % 0.0 mm
12:42 20.8 °C 16.0 °C 1020.9 hPa West 1.6 km/h 4.8 km/h 74 % 0.0 mm
12:47 20.8 °C 16.0 °C 1020.9 hPa Calm   4.8 km/h 74 % 0.0 mm
12:52 20.4 °C 15.4 °C 1020.9 hPa South 1.6 km/h 4.8 km/h 73 % 0.0 mm
12:57 20.1 °C 15.3 °C 1020.9 hPa Calm   4.8 km/h 74 % 0.0 mm
13:02 20.1 °C 15.5 °C 1020.9 hPa Calm   4.8 km/h 75 % 0.0 mm
13:07 20.1 °C 15.5 °C 1020.9 hPa WNW 1.6 km/h 4.8 km/h 75 % 0.0 mm
13:12 20.2 °C 15.6 °C 1020.9 hPa WSW 1.6 km/h 4.8 km/h 75 % 0.0 mm
13:17 20.3 °C 15.5 °C 1020.9 hPa SW 1.6 km/h 4.8 km/h 74 % 0.0 mm
13:22 20.6 °C 16.0 °C 1020.5 hPa Calm   6.4 km/h 75 % 0.0 mm
13:32 21.3 °C 16.5 °C 1020.5 hPa Calm   4.8 km/h 74 % 0.0 mm
13:37 21.6 °C 16.1 °C 1020.5 hPa Calm   4.8 km/h 71 % 0.0 mm
13:42 21.6 °C 16.3 °C 1020.5 hPa SW 1.6 km/h 4.8 km/h 72 % 0.0 mm
13:52 21.6 °C 15.9 °C 1020.5 hPa SW 1.6 km/h 4.8 km/h 70 % 0.0 mm
13:57 21.7 °C 15.8 °C 1020.5 hPa WSW 1.6 km/h 4.8 km/h 69 % 0.0 mm
14:02 21.6 °C 15.4 °C 1020.5 hPa Calm   6.4 km/h 68 % 0.0 mm
14:07 21.5 °C 15.6 °C 1020.5 hPa Calm   8.0 km/h 69 % 0.0 mm
14:12 21.7 °C 15.8 °C 1020.5 hPa Calm   8.0 km/h 69 % 0.0 mm
14:17 21.9 °C 15.7 °C 1020.2 hPa West 1.6 km/h 8.0 km/h 68 % 0.0 mm
14:27 22.2 °C 16.2 °C 1020.2 hPa WSW 3.2 km/h 6.4 km/h 69 % 0.0 mm
14:32 22.1 °C 15.9 °C 1020.2 hPa Calm   6.4 km/h 68 % 0.0 mm
14:37 22.2 °C 16.2 °C 1020.2 hPa Calm   6.4 km/h 69 % 0.0 mm
14:42 22.1 °C 16.1 °C 1020.2 hPa Calm   6.4 km/h 69 % 0.0 mm
14:47 22.1 °C 15.9 °C 1020.2 hPa SE 1.6 km/h 8.0 km/h 68 % 0.0 mm
14:52 22.2 °C 16.0 °C 1020.2 hPa Calm   8.0 km/h 68 % 0.0 mm
14:57 22.2 °C 16.2 °C 1020.2 hPa WSW 1.6 km/h 8.0 km/h 69 % 0.0 mm
15:02 22.3 °C 15.6 °C 1019.9 hPa NE 1.6 km/h 6.4 km/h 66 % 0.0 mm
15:12 22.4 °C 15.7 °C 1019.9 hPa SW 1.6 km/h 6.4 km/h 66 % 0.0 mm
15:17 22.4 °C 16.2 °C 1019.9 hPa Calm   6.4 km/h 68 % 0.0 mm
15:22 22.6 °C 15.9 °C 1019.9 hPa Calm   4.8 km/h 66 % 0.0 mm
15:27 22.6 °C 15.4 °C 1019.9 hPa West 1.6 km/h 4.8 km/h 64 % 0.0 mm
15:32 22.6 °C 15.7 °C 1019.9 hPa WSW 3.2 km/h 4.8 km/h 65 % 0.0 mm
15:37 22.6 °C 15.4 °C 1019.9 hPa Calm   4.8 km/h 64 % 0.0 mm
15:42 22.8 °C 15.6 °C 1019.9 hPa Calm   4.8 km/h 64 % 0.0 mm
15:47 22.8 °C 15.4 °C 1019.9 hPa West 1.6 km/h 6.4 km/h 63 % 0.0 mm
15:52 22.5 °C 15.1 °C 1019.9 hPa Calm   6.4 km/h 63 % 0.0 mm
15:57 22.3 °C 15.4 °C 1019.9 hPa Calm   4.8 km/h 65 % 0.0 mm
16:02 22.2 °C 15.3 °C 1019.9 hPa Calm   4.8 km/h 65 % 0.0 mm
16:07 22.4 °C 15.5 °C 1019.9 hPa East 3.2 km/h 3.2 km/h 65 % 0.0 mm
16:12 22.2 °C 15.5 °C 1019.9 hPa Calm   4.8 km/h 66 % 0.0 mm
16:17 22.2 °C 15.8 °C 1019.9 hPa Calm   6.4 km/h 67 % 0.0 mm
16:22 22.1 °C 15.7 °C 1019.5 hPa Calm   6.4 km/h 67 % 0.0 mm
16:27 22.2 °C 16.0 °C 1019.5 hPa Calm   6.4 km/h 68 % 0.0 mm
16:32 22.2 °C 15.5 °C 1019.5 hPa Calm   3.2 km/h 66 % 0.0 mm
16:42 22.4 °C 16.0 °C 1019.5 hPa Calm   3.2 km/h 67 % 0.0 mm
16:52 22.7 °C 15.8 °C 1019.5 hPa Calm   3.2 km/h 65 % 0.0 mm
16:57 22.8 °C 15.4 °C 1019.5 hPa Calm   3.2 km/h 63 % 0.0 mm
17:02 23.0 °C 16.1 °C 1019.2 hPa Calm   3.2 km/h 65 % 0.0 mm
17:07 23.3 °C 16.1 °C 1019.2 hPa Calm   3.2 km/h 64 % 0.0 mm
17:12 23.6 °C 16.4 °C 1019.2 hPa Calm   3.2 km/h 64 % 0.0 mm
17:17 23.7 °C 15.7 °C 1019.2 hPa Calm   3.2 km/h 61 % 0.0 mm
17:22 23.7 °C 15.7 °C 1019.2 hPa Calm   1.6 km/h 61 % 0.0 mm
17:32 23.5 °C 15.8 °C 1019.2 hPa Calm     62 % 0.0 mm
17:37 23.6 °C 15.6 °C 1018.8 hPa Calm     61 % 0.0 mm
17:42 23.2 °C 15.8 °C 1019.2 hPa Calm     63 % 0.0 mm
17:47 22.7 °C 15.5 °C 1018.8 hPa ENE 1.6 km/h   64 % 0.0 mm
17:52 22.5 °C 15.6 °C 1018.8 hPa Calm   3.2 km/h 65 % 0.0 mm
17:57 22.4 °C 15.7 °C 1018.8 hPa Calm   3.2 km/h 66 % 0.0 mm
18:02 22.3 °C 15.4 °C 1018.8 hPa Calm   3.2 km/h 65 % 0.0 mm
18:12 21.5 °C 15.1 °C 1018.8 hPa Calm     67 % 0.0 mm
18:17 22.2 °C 16.0 °C 1018.8 hPa Calm   1.6 km/h 68 % 0.0 mm
18:22 22.8 °C 16.8 °C 1018.8 hPa Calm   1.6 km/h 69 % 0.0 mm
18:27 23.5 °C 15.8 °C 1018.5 hPa Calm   1.6 km/h 62 % 0.0 mm
18:32 23.6 °C 15.6 °C 1018.5 hPa Calm   1.6 km/h 61 % 0.0 mm
18:37 23.5 °C 15.5 °C 1018.5 hPa Calm   3.2 km/h 61 % 0.0 mm
18:42 23.8 °C 16.1 °C 1018.5 hPa Calm   3.2 km/h 62 % 0.0 mm
18:47 24.2 °C 16.2 °C 1018.5 hPa Calm   3.2 km/h 61 % 0.0 mm
18:52 24.2 °C 15.9 °C 1018.5 hPa Calm   3.2 km/h 60 % 0.0 mm
18:57 23.8 °C 15.6 °C 1018.5 hPa Calm   3.2 km/h 60 % 0.0 mm
19:02 23.4 °C 15.4 °C 1018.5 hPa Calm   3.2 km/h 61 % 0.0 mm
19:07 23.1 °C 15.7 °C 1018.5 hPa Calm   3.2 km/h 63 % 0.0 mm
19:12 22.9 °C 15.5 °C 1018.5 hPa WSW 1.6 km/h 3.2 km/h 63 % 0.0 mm
19:17 22.7 °C 15.5 °C 1018.5 hPa Calm   3.2 km/h 64 % 0.0 mm
19:22 22.6 °C 15.4 °C 1018.5 hPa Calm   3.2 km/h 64 % 0.0 mm
19:27 22.3 °C 15.9 °C 1018.5 hPa Calm   3.2 km/h 67 % 0.0 mm
19:32 22.3 °C 15.9 °C 1018.5 hPa Calm     67 % 0.0 mm
19:37 22.2 °C 15.5 °C 1018.5 hPa Calm     66 % 0.0 mm
19:42 22.3 °C 16.1 °C 1018.5 hPa ENE 1.6 km/h 1.6 km/h 68 % 0.0 mm
19:52 21.8 °C 16.1 °C 1018.5 hPa Calm   4.8 km/h 70 % 0.0 mm
19:57 21.6 °C 15.9 °C 1018.2 hPa Calm   4.8 km/h 70 % 0.0 mm
20:02 21.6 °C 16.1 °C 1018.2 hPa Calm     71 % 0.0 mm
20:07 21.4 °C 15.7 °C 1018.2 hPa Calm     70 % 0.0 mm
20:12 21.2 °C 15.7 °C 1018.2 hPa Calm     71 % 0.0 mm
20:17 21.0 °C 15.8 °C 1018.2 hPa Calm     72 % 0.0 mm
20:27 20.7 °C 15.9 °C 1018.2 hPa Calm     74 % 0.0 mm
20:32 20.6 °C 16.0 °C 1018.2 hPa Calm     75 % 0.0 mm
20:37 20.4 °C 16.0 °C 1018.2 hPa Calm     76 % 0.0 mm
20:42 20.2 °C 16.0 °C 1018.2 hPa Calm     77 % 0.0 mm
20:47 20.1 °C 16.1 °C 1018.2 hPa Calm   3.2 km/h 78 % 0.0 mm
20:52 19.8 °C 15.9 °C 1018.2 hPa Calm   3.2 km/h 78 % 0.0 mm
20:57 19.6 °C 16.1 °C 1018.2 hPa Calm   1.6 km/h 80 % 0.0 mm
21:02 19.4 °C 15.9 °C 1018.2 hPa Calm   1.6 km/h 80 % 0.0 mm
21:07 19.3 °C 16.0 °C 1018.2 hPa Calm   1.6 km/h 81 % 0.0 mm
21:12 19.1 °C 16.0 °C 1017.8 hPa Calm   1.6 km/h 82 % 0.0 mm
21:17 18.9 °C 15.9 °C 1017.8 hPa Calm   1.6 km/h 83 % 0.0 mm
21:22 18.6 °C 15.8 °C 1017.8 hPa Calm   1.6 km/h 84 % 0.0 mm
21:27 18.4 °C 15.8 °C 1017.8 hPa Calm   1.6 km/h 85 % 0.0 mm
21:32 18.1 °C 15.5 °C 1017.8 hPa Calm   1.6 km/h 85 % 0.0 mm
21:37 17.9 °C 15.5 °C 1017.8 hPa Calm   1.6 km/h 86 % 0.0 mm
21:42 17.7 °C 15.5 °C 1017.8 hPa Calm   1.6 km/h 87 % 0.0 mm
21:47 17.5 °C 15.3 °C 1017.8 hPa Calm   1.6 km/h 87 % 0.0 mm
21:52 17.4 °C 15.4 °C 1018.2 hPa Calm   1.6 km/h 88 % 0.0 mm
22:02 16.9 °C 14.9 °C 1018.2 hPa Calm     88 % 0.0 mm
22:07 16.8 °C 15.0 °C 1018.2 hPa Calm   1.6 km/h 89 % 0.0 mm
22:12 16.7 °C 15.1 °C 1018.2 hPa Calm   1.6 km/h 90 % 0.0 mm
22:22 16.6 °C 15.1 °C 1018.5 hPa Calm   1.6 km/h 91 % 0.0 mm
22:32 16.4 °C 14.9 °C 1018.5 hPa Calm   1.6 km/h 91 % 0.0 mm
22:37 16.4 °C 14.9 °C 1018.5 hPa Calm   1.6 km/h 91 % 0.0 mm
22:42 16.4 °C 14.9 °C 1018.5 hPa Calm   1.6 km/h 91 % 0.0 mm
22:47 16.3 °C 14.8 °C 1018.5 hPa Calm   1.6 km/h 91 % 0.0 mm
22:52 16.2 °C 14.7 °C 1018.5 hPa Calm   3.2 km/h 91 % 0.0 mm
22:57 16.2 °C 14.9 °C 1018.5 hPa Calm   3.2 km/h 92 % 0.0 mm
23:02 16.2 °C 14.9 °C 1018.8 hPa Calm   3.2 km/h 92 % 0.0 mm
23:07 16.2 °C 14.9 °C 1018.8 hPa Calm   1.6 km/h 92 % 0.0 mm
23:12 16.2 °C 14.9 °C 1018.8 hPa Calm   1.6 km/h 92 % 0.0 mm
23:17 16.1 °C 14.8 °C 1018.8 hPa Calm   1.6 km/h 92 % 0.0 mm
23:22 16.1 °C 14.8 °C 1018.8 hPa NE 1.6 km/h 1.6 km/h 92 % 0.0 mm
23:32 16.0 °C 14.7 °C 1019.2 hPa Calm   1.6 km/h 92 % 0.0 mm
23:37 16.0 °C 14.7 °C 1019.2 hPa Calm   1.6 km/h 92 % 0.0 mm
23:42 16.0 °C 14.7 °C 1019.2 hPa Calm     92 % 0.0 mm
23:47 15.9 °C 14.6 °C 1019.5 hPa Calm     92 % 0.0 mm
23:52 15.9 °C 14.6 °C 1019.5 hPa Calm     92 % 0.0 mm
23:57 15.8 °C 14.5 °C 1019.5 hPa Calm     92 % 0.0 mm
Meteo18
Compliments of Weather Underground - 4 mb

Script developed by  Jim McMurry - jmcmurry@mwt.net Adapted for the template by  Wim van der Kuil - Leuven-Template.eu

You find our weather info also at:

European Weather Network

Weather Underground

Equipment we use:

Weather-station
Davis Vue

Weather-program
Meteohub

Weather-server
Raspberry PI 2 B+

Provider
1 and 1

Davis Vue

Meteohub

Raspberry PI 2 B+

1 and 1